createdAt,value
2022-11-07T00:00:35.908Z,99.99
2022-11-07T00:01:35.961Z,99.99
2022-11-07T00:02:35.953Z,99.99
2022-11-07T00:03:36.194Z,99.99
2022-11-07T00:04:35.882Z,99.99
2022-11-07T00:05:35.861Z,99.99
2022-11-07T00:06:35.855Z,99.99
2022-11-07T00:07:35.830Z,99.99
2022-11-07T00:08:35.843Z,99.99
2022-11-07T00:09:35.823Z,99.99
2022-11-07T00:10:35.815Z,99.99
2022-11-07T00:11:35.799Z,99.99
2022-11-07T00:12:35.783Z,99.99
2022-11-07T00:13:35.756Z,99.99
2022-11-07T00:14:35.771Z,99.99
2022-11-07T00:15:35.761Z,99.99
2022-11-07T00:16:35.744Z,99.99
2022-11-07T00:17:35.728Z,99.99
2022-11-07T00:18:35.719Z,99.99
2022-11-07T00:19:35.700Z,99.99
2022-11-07T00:20:35.695Z,99.99
2022-11-07T00:21:35.692Z,99.99
2022-11-07T00:22:35.672Z,99.99
2022-11-07T00:23:35.671Z,99.99
2022-11-07T00:24:35.685Z,99.99
2022-11-07T00:25:35.650Z,99.99
2022-11-07T00:26:35.642Z,99.99
2022-11-07T00:27:35.683Z,99.99
2022-11-07T00:28:35.613Z,99.99
2022-11-07T00:29:35.614Z,99.99
2022-11-07T00:30:35.584Z,99.99
2022-11-07T00:31:35.576Z,99.99
2022-11-07T00:32:35.553Z,99.99
2022-11-07T00:33:35.544Z,99.99
2022-11-07T00:34:35.552Z,99.99
2022-11-07T00:35:35.725Z,99.99
2022-11-07T00:36:35.519Z,99.99
2022-11-07T00:37:35.512Z,99.99
2022-11-07T00:38:35.500Z,99.99
2022-11-07T00:39:35.903Z,99.99
2022-11-07T00:40:35.511Z,99.99
2022-11-07T00:41:35.482Z,99.99
2022-11-07T00:42:35.466Z,99.99
2022-11-07T00:43:35.456Z,99.99
2022-11-07T00:44:35.449Z,99.99
2022-11-07T00:45:35.438Z,99.99
2022-11-07T00:46:35.403Z,99.99
2022-11-07T00:47:35.450Z,99.99
2022-11-07T00:48:35.391Z,99.99
2022-11-07T00:49:35.389Z,99.99
2022-11-07T00:50:35.368Z,99.99
2022-11-07T00:51:35.356Z,99.99
2022-11-07T00:52:35.576Z,99.99
2022-11-07T00:53:35.353Z,99.99
2022-11-07T00:54:35.332Z,99.99
2022-11-07T00:55:35.326Z,99.99
2022-11-07T00:56:35.332Z,99.99
2022-11-07T00:57:35.292Z,99.99
2022-11-07T00:58:35.285Z,99.99
2022-11-07T00:59:35.288Z,99.99
2022-11-07T01:00:35.265Z,99.99
2022-11-07T01:01:35.495Z,99.99
2022-11-07T01:02:35.385Z,99.99
2022-11-07T01:03:35.224Z,99.99
2022-11-07T01:04:35.238Z,99.99
2022-11-07T01:05:35.222Z,99.99
2022-11-07T01:06:35.198Z,99.99
2022-11-07T01:07:35.194Z,99.99
2022-11-07T01:08:35.206Z,99.99
2022-11-07T01:09:35.168Z,99.99
2022-11-07T01:10:35.163Z,99.99
2022-11-07T01:11:35.165Z,99.99
2022-11-07T01:12:35.167Z,99.99
2022-11-07T01:13:35.120Z,99.99
2022-11-07T01:14:35.125Z,99.99
2022-11-07T01:15:35.306Z,99.99
2022-11-07T01:16:35.086Z,99.99
2022-11-07T01:17:35.080Z,99.99
2022-11-07T01:18:35.091Z,99.99
2022-11-07T01:19:35.266Z,99.99
2022-11-07T01:20:35.046Z,99.99
2022-11-07T01:21:35.043Z,99.99
2022-11-07T01:22:35.025Z,99.99
2022-11-07T01:23:35.017Z,99.99
2022-11-07T01:24:35.003Z,99.99
2022-11-07T01:25:35.000Z,99.99
2022-11-07T01:26:34.977Z,99.99
2022-11-07T01:27:34.981Z,99.99
2022-11-07T01:28:35.107Z,99.99
2022-11-07T01:29:34.939Z,99.99
2022-11-07T01:30:34.932Z,99.99
2022-11-07T01:31:34.917Z,99.99
2022-11-07T01:32:34.922Z,99.99
2022-11-07T01:33:34.918Z,99.99
2022-11-07T01:34:34.890Z,99.99
2022-11-07T01:35:34.903Z,99.99
2022-11-07T01:36:34.889Z,99.99
2022-11-07T01:37:34.858Z,99.99
2022-11-07T01:38:34.855Z,99.99
2022-11-07T01:39:34.842Z,99.99
2022-11-07T01:40:34.846Z,99.99
2022-11-07T01:41:34.818Z,99.99
2022-11-07T01:42:34.842Z,99.99
2022-11-07T01:43:34.816Z,99.99
2022-11-07T01:44:34.821Z,99.99
2022-11-07T01:45:34.777Z,99.99
2022-11-07T01:46:34.759Z,99.99
2022-11-07T01:47:34.779Z,99.99
2022-11-07T01:48:34.787Z,99.99
2022-11-07T01:49:34.731Z,99.99
2022-11-07T01:50:34.726Z,99.99
2022-11-07T01:51:34.729Z,99.99
2022-11-07T01:52:34.713Z,99.99
2022-11-07T01:53:34.694Z,99.99
2022-11-07T01:54:34.667Z,99.99
2022-11-07T01:55:34.664Z,99.99
2022-11-07T01:56:34.669Z,99.99
2022-11-07T01:57:34.641Z,99.99
2022-11-07T01:58:34.635Z,99.99
2022-11-07T01:59:34.641Z,99.99
2022-11-07T02:00:34.624Z,99.99
2022-11-07T02:01:34.727Z,99.99
2022-11-07T02:02:34.772Z,99.99
2022-11-07T02:03:34.586Z,99.99
2022-11-07T02:04:34.592Z,99.99
2022-11-07T02:05:34.575Z,99.99
2022-11-07T02:06:34.544Z,99.99
2022-11-07T02:07:34.535Z,99.99
2022-11-07T02:08:34.542Z,99.99
2022-11-07T02:09:34.498Z,99.99
2022-11-07T02:10:34.492Z,99.99
2022-11-07T02:11:34.496Z,99.99
2022-11-07T02:12:34.468Z,99.99
2022-11-07T02:13:34.455Z,99.99
2022-11-07T02:14:34.434Z,99.99
2022-11-07T02:15:34.428Z,99.99
2022-11-07T02:16:34.438Z,99.99
2022-11-07T02:17:34.428Z,99.99
2022-11-07T02:18:34.410Z,99.99
2022-11-07T02:19:34.424Z,99.99
2022-11-07T02:20:34.414Z,99.99
2022-11-07T02:21:34.528Z,99.99
2022-11-07T02:22:34.390Z,99.99
2022-11-07T02:23:34.383Z,99.99
2022-11-07T02:24:34.367Z,99.99
2022-11-07T02:25:34.327Z,99.99
2022-11-07T02:26:34.314Z,99.99
2022-11-07T02:27:34.315Z,99.99
2022-11-07T02:28:34.507Z,99.99
2022-11-07T02:29:34.272Z,99.99
2022-11-07T02:30:34.291Z,99.99
2022-11-07T02:31:34.260Z,99.99
2022-11-07T02:32:34.269Z,99.99
2022-11-07T02:33:34.235Z,99.99
2022-11-07T02:34:34.426Z,99.99
2022-11-07T02:35:34.217Z,99.99
2022-11-07T02:36:34.204Z,99.99
2022-11-07T02:37:34.209Z,99.99
2022-11-07T02:38:34.191Z,99.99
2022-11-07T02:39:34.162Z,99.99
2022-11-07T02:40:34.160Z,99.99
2022-11-07T02:41:34.340Z,99.99
2022-11-07T02:42:34.130Z,99.99
2022-11-07T02:43:34.124Z,99.99
2022-11-07T02:44:34.116Z,99.99
2022-11-07T02:45:34.100Z,99.99
2022-11-07T02:46:34.083Z,99.99
2022-11-07T02:47:34.089Z,99.99
2022-11-07T02:48:34.099Z,99.99
2022-11-07T02:49:34.071Z,99.99
2022-11-07T02:50:34.046Z,99.99
2022-11-07T02:51:34.031Z,99.99
2022-11-07T02:52:34.026Z,99.99
2022-11-07T02:53:34.016Z,99.99
2022-11-07T02:54:33.999Z,99.99
2022-11-07T02:55:34.210Z,99.99
2022-11-07T02:56:33.985Z,99.99
2022-11-07T02:57:33.969Z,99.99
2022-11-07T02:58:33.966Z,99.99
2022-11-07T02:59:34.052Z,99.99
2022-11-07T03:00:33.934Z,99.99
2022-11-07T03:01:34.394Z,99.99
2022-11-07T03:02:34.046Z,99.99
2022-11-07T03:03:33.928Z,99.99
2022-11-07T03:04:33.933Z,99.99
2022-11-07T03:05:33.873Z,99.99
2022-11-07T03:06:33.868Z,99.99
2022-11-07T03:07:33.877Z,99.99
2022-11-07T03:08:33.832Z,99.99
2022-11-07T03:09:33.831Z,99.99
2022-11-07T03:10:33.815Z,99.99
2022-11-07T03:11:33.804Z,99.99
2022-11-07T03:12:33.806Z,99.99
2022-11-07T03:13:33.780Z,99.99
2022-11-07T03:14:33.864Z,99.99
2022-11-07T03:15:33.772Z,99.99
2022-11-07T03:16:33.786Z,99.99
2022-11-07T03:17:33.760Z,99.99
2022-11-07T03:18:33.762Z,99.99
2022-11-07T03:19:33.729Z,99.99
2022-11-07T03:20:33.837Z,99.99
2022-11-07T03:21:33.699Z,99.99
2022-11-07T03:22:33.690Z,99.99
2022-11-07T03:23:33.670Z,99.99
2022-11-07T03:24:33.886Z,99.99
2022-11-07T03:25:33.659Z,99.99
2022-11-07T03:26:33.851Z,99.99
2022-11-07T03:27:33.646Z,99.99
2022-11-07T03:28:33.634Z,99.99
2022-11-07T03:29:33.615Z,99.99
2022-11-07T03:30:33.603Z,99.99
2022-11-07T03:31:33.590Z,99.99
2022-11-07T03:32:33.586Z,99.99
2022-11-07T03:33:33.577Z,99.99
2022-11-07T03:34:33.570Z,99.99
2022-11-07T03:35:33.540Z,99.99
2022-11-07T03:36:33.551Z,99.99
2022-11-07T03:37:33.527Z,99.99
2022-11-07T03:38:33.516Z,99.99
2022-11-07T03:39:33.510Z,99.99
2022-11-07T03:40:33.490Z,99.99
2022-11-07T03:41:33.478Z,99.99
2022-11-07T03:42:33.468Z,99.99
2022-11-07T03:43:33.463Z,99.99
2022-11-07T03:44:33.449Z,99.99
2022-11-07T03:45:33.437Z,99.99
2022-11-07T03:46:33.426Z,99.99
2022-11-07T03:47:33.425Z,99.99
2022-11-07T03:48:33.401Z,99.99
2022-11-07T03:49:33.404Z,99.99
2022-11-07T03:50:33.380Z,99.99
2022-11-07T03:51:33.376Z,99.99
2022-11-07T03:52:33.623Z,99.99
2022-11-07T03:53:33.373Z,99.99
2022-11-07T03:54:33.353Z,99.99
2022-11-07T03:55:33.360Z,99.99
2022-11-07T03:56:33.350Z,99.99
2022-11-07T03:57:33.373Z,99.99
2022-11-07T03:58:33.532Z,99.99
2022-11-07T03:59:33.366Z,99.99
2022-11-07T04:00:33.282Z,99.99
2022-11-07T04:01:33.399Z,99.99
2022-11-07T04:03:33.285Z,99.99
2022-11-07T04:04:33.279Z,99.99
2022-11-07T04:05:33.236Z,99.99
2022-11-07T04:06:33.294Z,99.99
2022-11-07T04:07:33.221Z,99.99
2022-11-07T04:08:33.316Z,99.99
2022-11-07T04:09:33.229Z,99.99
2022-11-07T04:10:33.205Z,99.99
2022-11-07T04:11:33.193Z,99.99
2022-11-07T04:12:33.247Z,99.99
2022-11-07T04:13:33.142Z,99.99
2022-11-07T04:14:33.346Z,99.99
2022-11-07T04:15:33.135Z,99.99
2022-11-07T04:16:33.145Z,99.99
2022-11-07T04:17:33.126Z,99.99
2022-11-07T04:18:33.080Z,99.99
2022-11-07T04:19:33.085Z,99.99
2022-11-07T04:20:33.085Z,99.99
2022-11-07T04:21:33.086Z,99.99
2022-11-07T04:22:33.079Z,99.99
2022-11-07T04:23:33.120Z,99.99
2022-11-07T04:24:33.079Z,99.99
2022-11-07T04:25:33.041Z,99.99
2022-11-07T04:26:33.008Z,99.99
2022-11-07T04:27:33.007Z,99.99
2022-11-07T04:28:32.987Z,99.99
2022-11-07T04:29:33.009Z,99.99
2022-11-07T04:30:32.996Z,99.99
2022-11-07T04:31:32.984Z,99.99
2022-11-07T04:32:32.968Z,99.99
2022-11-07T04:33:32.945Z,99.99
2022-11-07T04:34:32.940Z,99.99
2022-11-07T04:35:32.924Z,99.99
2022-11-07T04:36:33.135Z,99.99
2022-11-07T04:37:32.928Z,99.99
2022-11-07T04:38:32.899Z,99.99
2022-11-07T04:39:32.952Z,99.99
2022-11-07T04:40:32.916Z,99.99
2022-11-07T04:41:32.863Z,99.99
2022-11-07T04:42:32.837Z,99.99
2022-11-07T04:43:32.836Z,99.99
2022-11-07T04:44:32.848Z,99.99
2022-11-07T04:45:32.845Z,99.99
2022-11-07T04:46:32.803Z,99.99
2022-11-07T04:47:35.352Z,99.99
2022-11-07T04:48:32.812Z,99.99
2022-11-07T04:49:32.753Z,99.99
2022-11-07T04:50:32.825Z,99.99
2022-11-07T04:51:32.776Z,99.99
2022-11-07T04:52:32.799Z,99.99
2022-11-07T04:53:32.784Z,99.99
2022-11-07T04:54:32.772Z,99.99
2022-11-07T04:55:32.720Z,99.99
2022-11-07T04:56:34.599Z,99.99
2022-11-07T04:57:32.726Z,99.99
2022-11-07T04:58:32.689Z,99.99
2022-11-07T04:59:32.875Z,99.99
2022-11-07T05:00:32.749Z,99.99
2022-11-07T05:01:32.694Z,99.99
2022-11-07T05:02:32.813Z,99.99
2022-11-07T05:03:35.197Z,99.99
2022-11-07T05:04:32.631Z,99.99
2022-11-07T05:05:32.618Z,99.99
2022-11-07T05:06:32.618Z,99.99
2022-11-07T05:07:32.666Z,99.99
2022-11-07T05:08:32.586Z,99.99
2022-11-07T05:09:32.600Z,99.99
2022-11-07T05:10:32.537Z,99.99
2022-11-07T05:11:32.588Z,99.99
2022-11-07T05:12:32.552Z,99.99
2022-11-07T05:13:32.521Z,99.99
2022-11-07T05:14:32.524Z,99.99
2022-11-07T05:15:32.688Z,99.99
2022-11-07T05:16:32.682Z,99.99
2022-11-07T05:17:32.486Z,99.99
2022-11-07T05:18:32.463Z,99.99
2022-11-07T05:19:32.465Z,99.99
2022-11-07T05:20:32.459Z,99.99
2022-11-07T05:21:32.448Z,99.99
2022-11-07T05:22:32.425Z,99.99
2022-11-07T05:23:32.439Z,99.99
2022-11-07T05:24:32.482Z,99.99
2022-11-07T05:25:32.421Z,99.99
2022-11-07T05:26:32.355Z,99.99
2022-11-07T05:27:32.360Z,99.99
2022-11-07T05:28:38.683Z,99.99
2022-11-07T05:29:32.336Z,99.99
2022-11-07T05:30:32.321Z,99.99
2022-11-07T05:31:32.331Z,99.99
2022-11-07T05:32:32.356Z,99.99
2022-11-07T05:33:32.299Z,99.99
2022-11-07T05:34:32.286Z,99.99
2022-11-07T05:35:32.263Z,99.99
2022-11-07T05:36:32.286Z,99.99
2022-11-07T05:37:32.301Z,99.99
2022-11-07T05:38:32.227Z,99.99
2022-11-07T05:39:32.236Z,99.99
2022-11-07T05:40:32.221Z,99.99
2022-11-07T05:41:32.214Z,99.99
2022-11-07T05:42:32.203Z,99.99
2022-11-07T05:43:32.173Z,99.99
2022-11-07T05:44:32.218Z,99.99
2022-11-07T05:45:32.177Z,99.99
2022-11-07T05:46:32.186Z,99.99
2022-11-07T05:47:32.147Z,99.99
2022-11-07T05:48:32.151Z,99.99
2022-11-07T05:49:32.315Z,99.99
2022-11-07T05:50:32.098Z,99.99
2022-11-07T05:51:32.112Z,99.99
2022-11-07T05:52:32.106Z,99.99
2022-11-07T05:53:32.175Z,99.99
2022-11-07T05:54:32.270Z,99.99
2022-11-07T05:55:32.066Z,99.99
2022-11-07T05:56:32.053Z,99.99
2022-11-07T05:57:32.047Z,99.99
2022-11-07T05:58:32.031Z,99.99
2022-11-07T05:59:32.005Z,99.99
2022-11-07T06:00:32.006Z,99.99
2022-11-07T06:01:32.206Z,99.99
2022-11-07T06:02:32.402Z,99.99
2022-11-07T06:03:31.959Z,99.99
2022-11-07T06:04:31.960Z,99.99
2022-11-07T06:05:31.955Z,99.99
2022-11-07T06:06:32.759Z,99.99
2022-11-07T06:07:31.920Z,99.99
2022-11-07T06:08:31.941Z,99.99
2022-11-07T06:09:31.907Z,99.99
2022-11-07T06:10:31.891Z,99.99
2022-11-07T06:11:31.873Z,99.99
2022-11-07T06:12:31.896Z,99.99
2022-11-07T06:13:31.882Z,99.99
2022-11-07T06:14:31.871Z,99.99
2022-11-07T06:15:31.830Z,99.99
2022-11-07T06:16:31.833Z,99.99
2022-11-07T06:17:31.829Z,99.99
2022-11-07T06:18:31.797Z,99.99
2022-11-07T06:19:31.993Z,99.99
2022-11-07T06:20:31.781Z,99.99
2022-11-07T06:21:31.758Z,99.99
2022-11-07T06:22:31.775Z,99.99
2022-11-07T06:23:31.741Z,99.99
2022-11-07T06:24:31.732Z,99.99
2022-11-07T06:25:31.739Z,99.99
2022-11-07T06:26:31.708Z,99.99
2022-11-07T06:27:31.708Z,99.99
2022-11-07T06:28:31.733Z,99.99
2022-11-07T06:29:31.684Z,99.99
2022-11-07T06:30:31.707Z,99.99
2022-11-07T06:31:31.872Z,99.99
2022-11-07T06:32:31.662Z,99.99
2022-11-07T06:33:31.646Z,99.99
2022-11-07T06:34:31.626Z,99.99
2022-11-07T06:35:31.621Z,99.99
2022-11-07T06:36:31.616Z,99.99
2022-11-07T06:37:31.608Z,99.99
2022-11-07T06:38:31.591Z,99.99
2022-11-07T06:39:31.573Z,99.99
2022-11-07T06:40:31.764Z,99.99
2022-11-07T06:41:31.559Z,99.99
2022-11-07T06:42:31.548Z,99.99
2022-11-07T06:43:33.828Z,99.99
2022-11-07T06:44:31.551Z,99.99
2022-11-07T06:45:31.510Z,99.99
2022-11-07T06:46:31.500Z,99.99
2022-11-07T06:47:31.474Z,99.99
2022-11-07T06:48:31.575Z,99.99
2022-11-07T06:49:31.460Z,99.99
2022-11-07T06:50:31.450Z,99.99
2022-11-07T06:51:31.435Z,99.99
2022-11-07T06:52:31.435Z,99.99
2022-11-07T06:53:31.413Z,99.99
2022-11-07T06:54:31.492Z,99.99
2022-11-07T06:55:31.400Z,99.99
2022-11-07T06:56:31.405Z,99.99
2022-11-07T06:57:31.371Z,99.99
2022-11-07T06:58:31.378Z,99.99
2022-11-07T06:59:31.374Z,99.99
2022-11-07T07:00:31.947Z,99.99
2022-11-07T07:01:31.445Z,99.99
2022-11-07T07:02:56.931Z,99.99
2022-11-07T07:03:31.304Z,99.99
2022-11-07T07:04:31.320Z,99.99
2022-11-07T07:05:31.292Z,99.99
2022-11-07T07:06:31.282Z,99.99
2022-11-07T07:07:31.266Z,99.99
2022-11-07T07:08:31.458Z,99.99
2022-11-07T07:09:31.244Z,99.99
2022-11-07T07:10:31.306Z,99.99
2022-11-07T07:11:31.231Z,99.99
2022-11-07T07:12:31.218Z,99.99
2022-11-07T07:13:31.217Z,99.99
2022-11-07T07:14:31.214Z,99.99
2022-11-07T07:15:47.521Z,99.99
2022-11-07T07:16:31.166Z,99.99
2022-11-07T07:17:31.170Z,99.99
2022-11-07T07:18:31.355Z,99.99
2022-11-07T07:19:31.154Z,99.99
2022-11-07T07:20:31.243Z,99.99
2022-11-07T07:21:31.259Z,99.99
2022-11-07T07:22:31.111Z,99.99
2022-11-07T07:23:31.109Z,99.99
2022-11-07T07:24:31.096Z,99.99
2022-11-07T07:25:31.137Z,99.99
2022-11-07T07:26:31.126Z,99.99
2022-11-07T07:27:31.084Z,99.99
2022-11-07T07:28:31.060Z,99.99
2022-11-07T07:29:31.061Z,99.99
2022-11-07T07:30:31.065Z,99.99
2022-11-07T07:31:31.036Z,99.99
2022-11-07T07:32:31.006Z,99.99
2022-11-07T07:33:30.999Z,99.99
2022-11-07T07:34:31.006Z,99.99
2022-11-07T07:35:30.996Z,99.99
2022-11-07T07:36:31.304Z,99.99
2022-11-07T07:37:30.967Z,99.99
2022-11-07T07:38:30.947Z,99.99
2022-11-07T07:39:30.970Z,99.99
2022-11-07T07:40:30.942Z,99.99
2022-11-07T07:41:33.004Z,99.99
2022-11-07T07:42:30.938Z,99.99
2022-11-07T07:43:30.930Z,99.99
2022-11-07T07:44:30.915Z,99.99
2022-11-07T07:45:30.916Z,99.99
2022-11-07T07:46:30.986Z,99.99
2022-11-07T07:47:30.866Z,99.99
2022-11-07T07:48:30.857Z,99.99
2022-11-07T07:49:30.851Z,99.99
2022-11-07T07:50:30.848Z,99.99
2022-11-07T07:51:30.834Z,99.99
2022-11-07T07:52:30.958Z,99.99
2022-11-07T07:53:30.816Z,99.99
2022-11-07T07:54:30.810Z,99.99
2022-11-07T07:55:30.831Z,99.99
2022-11-07T07:56:30.795Z,99.99
2022-11-07T07:57:30.788Z,99.99
2022-11-07T07:58:30.833Z,99.99
2022-11-07T07:59:30.843Z,99.99
2022-11-07T08:00:30.775Z,99.99
2022-11-07T08:01:30.900Z,99.43
2022-11-07T08:02:30.810Z,96.51
2022-11-07T08:03:50.678Z,94.98
2022-11-07T08:04:30.742Z,93.30
2022-11-07T08:05:30.782Z,95.70
2022-11-07T08:06:30.753Z,96.70
2022-11-07T08:07:30.719Z,96.70
2022-11-07T08:08:36.828Z,96.80
2022-11-07T08:09:30.705Z,95.61
2022-11-07T08:10:46.411Z,94.98
2022-11-07T08:11:30.688Z,93.98
2022-11-07T08:12:30.685Z,91.91
2022-11-07T08:13:30.675Z,89.42
2022-11-07T08:14:30.664Z,89.23
2022-11-07T08:15:30.659Z,88.31
2022-11-07T08:16:30.874Z,86.49
2022-11-07T08:17:30.645Z,86.01
2022-11-07T08:18:30.708Z,86.97
2022-11-07T08:19:30.821Z,85.28
2022-11-07T08:20:30.634Z,84.95
2022-11-07T08:21:30.634Z,83.80
2022-11-07T08:22:30.996Z,82.74
2022-11-07T08:23:30.640Z,82.41
2022-11-07T08:24:30.743Z,84.61
2022-11-07T08:25:30.620Z,84.23
2022-11-07T08:26:30.605Z,84.77
2022-11-07T08:27:30.616Z,85.38
2022-11-07T08:28:30.608Z,84.33
2022-11-07T08:29:30.587Z,85.10
2022-11-07T08:30:30.606Z,85.96
2022-11-07T08:31:30.600Z,85.28
2022-11-07T08:32:30.699Z,85.96
2022-11-07T08:33:30.679Z,85.19
2022-11-07T08:34:30.577Z,85.67
2022-11-07T08:35:30.571Z,85.58
2022-11-07T08:36:30.565Z,85.33
2022-11-07T08:37:30.560Z,84.51
2022-11-07T08:38:30.559Z,84.37
2022-11-07T08:39:30.558Z,83.80
2022-11-07T08:40:30.577Z,82.68
2022-11-07T08:41:30.545Z,81.96
2022-11-07T08:42:30.575Z,79.98
2022-11-07T08:43:30.552Z,80.65
2022-11-07T08:44:30.541Z,78.83
2022-11-07T08:45:30.541Z,79.27
2022-11-07T08:46:30.536Z,80.04
2022-11-07T08:47:30.532Z,80.63
2022-11-07T08:48:30.528Z,82.12
2022-11-07T08:49:30.533Z,83.65
2022-11-07T08:50:30.513Z,84.52
2022-11-07T08:51:30.715Z,84.33
2022-11-07T08:52:30.716Z,84.86
2022-11-07T08:53:30.517Z,85.38
2022-11-07T08:54:30.666Z,87.07
2022-11-07T08:55:30.714Z,88.75
2022-11-07T08:56:30.514Z,87.70
2022-11-07T08:57:30.497Z,87.98
2022-11-07T08:58:30.595Z,88.65
2022-11-07T08:59:30.482Z,88.75
2022-11-07T09:00:30.495Z,89.42
2022-11-07T09:01:30.707Z,89.71
2022-11-07T09:03:44.693Z,88.12
2022-11-07T09:04:30.623Z,87.88
2022-11-07T09:05:30.473Z,86.78
2022-11-07T09:06:30.475Z,86.01
2022-11-07T09:07:30.484Z,87.26
2022-11-07T09:08:30.493Z,88.31
2022-11-07T09:09:30.497Z,88.70
2022-11-07T09:10:30.467Z,88.65
2022-11-07T09:11:30.450Z,89.47
2022-11-07T09:12:30.509Z,90.53
2022-11-07T09:13:30.457Z,91.15
2022-11-07T09:14:30.457Z,91.49
2022-11-07T09:15:30.454Z,93.69
2022-11-07T09:16:30.441Z,94.26
2022-11-07T09:17:30.612Z,95.31
2022-11-07T09:18:30.456Z,95.17
2022-11-07T09:19:30.442Z,95.22
2022-11-07T09:20:30.428Z,96.18
2022-11-07T09:21:30.418Z,97.42
2022-11-07T09:22:30.415Z,99.04
2022-11-07T09:23:30.412Z,98.28
2022-11-07T09:24:30.642Z,97.71
2022-11-07T09:25:30.490Z,98.95
2022-11-07T09:26:30.458Z,99.10
2022-11-07T09:27:30.460Z,99.29
2022-11-07T09:28:30.506Z,97.42
2022-11-07T09:29:30.426Z,96.27
2022-11-07T09:30:30.432Z,96.42
2022-11-07T09:31:30.425Z,95.36
2022-11-07T09:32:44.695Z,93.30
2022-11-07T09:33:30.391Z,90.53
2022-11-07T09:34:30.432Z,89.66
2022-11-07T09:35:30.395Z,90.39
2022-11-07T09:36:30.387Z,90.81
2022-11-07T09:37:30.388Z,90.81
2022-11-07T09:38:30.328Z,91.00
2022-11-07T09:39:30.421Z,90.19
2022-11-07T09:40:30.558Z,89.94
2022-11-07T09:41:30.407Z,88.70
2022-11-07T09:42:30.415Z,88.84
2022-11-07T09:43:30.334Z,86.63
2022-11-07T09:44:33.260Z,85.48
2022-11-07T09:45:30.345Z,85.14
2022-11-07T09:46:30.420Z,85.14
2022-11-07T09:47:30.357Z,84.27
2022-11-07T09:48:30.341Z,84.91
2022-11-07T09:49:30.413Z,85.00
2022-11-07T09:50:30.534Z,86.15
2022-11-07T09:51:30.377Z,85.38
2022-11-07T09:52:30.334Z,85.58
2022-11-07T09:53:30.324Z,86.01
2022-11-07T09:54:30.330Z,85.72
2022-11-07T09:55:30.309Z,86.40
2022-11-07T09:56:30.396Z,86.97
2022-11-07T09:57:30.310Z,86.93
2022-11-07T09:58:30.307Z,88.08
2022-11-07T09:59:30.266Z,88.13
2022-11-07T10:00:30.282Z,88.61
2022-11-07T10:01:30.432Z,89.28
2022-11-07T10:02:30.335Z,89.18
2022-11-07T10:03:30.274Z,89.66
2022-11-07T10:04:30.262Z,89.86
2022-11-07T10:05:30.242Z,89.61
2022-11-07T10:06:30.262Z,88.75
2022-11-07T10:07:30.251Z,89.28
2022-11-07T10:08:30.253Z,89.66
2022-11-07T10:09:30.231Z,89.66
2022-11-07T10:10:30.436Z,89.66
2022-11-07T10:11:30.312Z,89.72
2022-11-07T10:12:30.218Z,90.67
2022-11-07T10:13:30.223Z,91.72
2022-11-07T10:14:30.209Z,91.63
2022-11-07T10:15:30.202Z,92.21
2022-11-07T10:16:30.234Z,92.21
2022-11-07T10:17:30.189Z,91.58
2022-11-07T10:18:30.209Z,92.35
2022-11-07T10:19:30.197Z,93.40
2022-11-07T10:20:30.180Z,93.74
2022-11-07T10:21:37.752Z,94.74
2022-11-07T10:22:30.183Z,93.88
2022-11-07T10:23:30.184Z,94.45
2022-11-07T10:24:30.176Z,93.79
2022-11-07T10:25:30.169Z,94.55
2022-11-07T10:26:30.149Z,93.79
2022-11-07T10:27:32.856Z,94.74
2022-11-07T10:28:30.140Z,95.03
2022-11-07T10:29:30.345Z,95.22
2022-11-07T10:30:30.136Z,95.79
2022-11-07T10:31:30.182Z,96.27
2022-11-07T10:32:30.244Z,95.22
2022-11-07T10:33:30.324Z,94.07
2022-11-07T10:34:30.143Z,95.03
2022-11-07T10:35:30.301Z,95.79
2022-11-07T10:36:30.122Z,95.98
2022-11-07T10:37:30.092Z,96.56
2022-11-07T10:38:30.309Z,96.22
2022-11-07T10:39:30.194Z,96.80
2022-11-07T10:40:30.116Z,96.51
2022-11-07T10:41:30.292Z,96.61
2022-11-07T10:42:30.053Z,96.51
2022-11-07T10:43:30.076Z,97.47
2022-11-07T10:44:30.043Z,97.95
2022-11-07T10:45:30.025Z,97.28
2022-11-07T10:46:30.047Z,97.95
2022-11-07T10:47:30.029Z,97.95
2022-11-07T10:48:30.055Z,98.43
2022-11-07T10:49:30.019Z,99.29
2022-11-07T10:50:30.017Z,97.95
2022-11-07T10:51:29.999Z,98.33
2022-11-07T10:52:30.022Z,98.90
2022-11-07T10:53:29.986Z,97.28
2022-11-07T10:54:29.983Z,98.33
2022-11-07T10:55:29.991Z,98.61
2022-11-07T10:56:29.974Z,99.29
2022-11-07T10:57:30.177Z,99.99
2022-11-07T10:58:29.963Z,99.29
2022-11-07T10:59:35.639Z,99.67
2022-11-07T11:00:29.956Z,99.96
2022-11-07T11:01:30.124Z,98.14
2022-11-07T11:02:29.931Z,97.99
2022-11-07T11:03:43.147Z,98.18
2022-11-07T11:04:29.972Z,98.85
2022-11-07T11:05:29.920Z,99.33
2022-11-07T11:06:29.895Z,99.43
2022-11-07T11:07:29.942Z,99.99
2022-11-07T11:08:29.888Z,99.99
2022-11-07T11:09:29.927Z,99.99
2022-11-07T11:10:29.880Z,98.85
2022-11-07T11:11:29.857Z,99.52
2022-11-07T11:12:32.173Z,99.99
2022-11-07T11:13:29.865Z,99.99
2022-11-07T11:14:29.854Z,99.99
2022-11-07T11:15:35.364Z,99.99
2022-11-07T11:16:29.849Z,99.99
2022-11-07T11:17:29.871Z,99.99
2022-11-07T11:18:29.846Z,99.99
2022-11-07T11:19:30.003Z,99.99
2022-11-07T11:20:29.849Z,99.90
2022-11-07T11:21:29.812Z,99.99
2022-11-07T11:22:29.830Z,99.99
2022-11-07T11:23:29.791Z,99.99
2022-11-07T11:24:29.795Z,99.99
2022-11-07T11:25:29.790Z,99.48
2022-11-07T11:26:29.787Z,98.33
2022-11-07T11:27:29.758Z,97.90
2022-11-07T11:28:29.739Z,98.85
2022-11-07T11:29:29.751Z,99.00
2022-11-07T11:30:29.740Z,99.57
2022-11-07T11:31:29.781Z,99.99
2022-11-07T11:32:29.732Z,99.00
2022-11-07T11:33:29.740Z,99.10
2022-11-07T11:34:29.723Z,99.48
2022-11-07T11:35:29.715Z,99.19
2022-11-07T11:36:29.767Z,98.14
2022-11-07T11:37:29.690Z,98.81
2022-11-07T11:38:29.696Z,98.43
2022-11-07T11:39:29.674Z,99.10
2022-11-07T11:40:29.687Z,98.71
2022-11-07T11:41:29.650Z,98.33
2022-11-07T11:42:29.676Z,99.00
2022-11-07T11:43:29.647Z,97.95
2022-11-07T11:44:29.639Z,97.95
2022-11-07T11:45:29.636Z,98.52
2022-11-07T11:46:29.636Z,99.24
2022-11-07T11:47:34.390Z,99.14
2022-11-07T11:48:29.625Z,98.71
2022-11-07T11:49:29.605Z,99.33
2022-11-07T11:50:29.601Z,99.33
2022-11-07T11:51:29.582Z,99.99
2022-11-07T11:52:29.619Z,99.99
2022-11-07T11:53:29.552Z,99.99
2022-11-07T11:54:29.553Z,99.99
2022-11-07T11:55:29.549Z,99.99
2022-11-07T11:56:29.546Z,99.99
2022-11-07T11:57:29.533Z,99.71
2022-11-07T11:58:29.732Z,99.43
2022-11-07T11:59:29.527Z,99.99
2022-11-07T12:00:29.514Z,99.99
2022-11-07T12:01:29.512Z,99.33
2022-11-07T12:02:29.591Z,97.71
2022-11-07T12:03:29.492Z,99.14
2022-11-07T12:04:29.480Z,99.99
2022-11-07T12:05:29.490Z,99.99
2022-11-07T12:06:29.471Z,99.10
2022-11-07T12:07:29.461Z,99.76
2022-11-07T12:08:29.520Z,99.38
2022-11-07T12:09:29.450Z,99.38
2022-11-07T12:10:29.448Z,98.61
2022-11-07T12:11:29.442Z,98.90
2022-11-07T12:12:29.431Z,99.00
2022-11-07T12:13:29.426Z,97.85
2022-11-07T12:14:29.418Z,98.90
2022-11-07T12:15:29.393Z,99.29
2022-11-07T12:16:29.384Z,99.04
2022-11-07T12:17:29.389Z,98.61
2022-11-07T12:18:29.394Z,98.85
2022-11-07T12:19:29.581Z,99.33
2022-11-07T12:20:29.364Z,99.14
2022-11-07T12:21:29.354Z,99.81
2022-11-07T12:22:29.352Z,99.90
2022-11-07T12:23:29.572Z,99.99
2022-11-07T12:24:29.350Z,99.99
2022-11-07T12:25:29.343Z,98.66
2022-11-07T12:26:29.327Z,99.04
2022-11-07T12:27:29.313Z,99.99
2022-11-07T12:28:29.313Z,99.81
2022-11-07T12:29:29.505Z,99.99
2022-11-07T12:30:29.489Z,99.90
2022-11-07T12:31:29.310Z,99.52
2022-11-07T12:32:29.274Z,99.71
2022-11-07T12:33:29.268Z,99.99
2022-11-07T12:34:29.266Z,99.99
2022-11-07T12:35:29.267Z,99.52
2022-11-07T12:36:29.263Z,99.71
2022-11-07T12:37:29.233Z,99.14
2022-11-07T12:38:29.225Z,98.95
2022-11-07T12:39:29.241Z,99.71
2022-11-07T12:40:29.241Z,99.99
2022-11-07T12:41:29.212Z,99.99
2022-11-07T12:42:29.215Z,99.43
2022-11-07T12:43:29.215Z,99.14
2022-11-07T12:44:29.180Z,97.61
2022-11-07T12:45:29.175Z,96.84
2022-11-07T12:46:29.164Z,97.61
2022-11-07T12:47:29.172Z,98.09
2022-11-07T12:48:29.159Z,97.42
2022-11-07T12:49:29.149Z,98.47
2022-11-07T12:50:29.139Z,97.04
2022-11-07T12:51:29.154Z,98.33
2022-11-07T12:52:29.137Z,99.29
2022-11-07T12:53:29.135Z,96.99
2022-11-07T12:54:29.111Z,96.51